createdAt,value
2022-11-12T00:00:25.609Z,26.42
2022-11-12T00:03:11.842Z,26.77
2022-11-12T00:05:58.005Z,27.55
2022-11-12T00:08:44.024Z,25.10
2022-11-12T00:11:29.879Z,27.98
2022-11-12T00:14:15.801Z,26.90
2022-11-12T00:17:01.820Z,28.23
2022-11-12T00:19:48.000Z,29.42
2022-11-12T00:22:34.393Z,28.90
2022-11-12T00:25:19.968Z,28.60
2022-11-12T00:28:07.026Z,31.75
2022-11-12T00:30:53.271Z,29.25
2022-11-12T00:33:42.909Z,30.08
2022-11-12T00:36:28.996Z,28.35
2022-11-12T00:39:15.044Z,29.58
2022-11-12T00:42:01.004Z,28.63
2022-11-12T00:44:46.984Z,27.90
2022-11-12T00:47:32.819Z,27.92
2022-11-12T00:50:18.670Z,28.88
2022-11-12T00:53:04.776Z,29.35
2022-11-12T00:55:50.736Z,28.05
2022-11-12T00:58:37.168Z,27.80
2022-11-12T01:01:23.604Z,28.23
2022-11-12T01:04:10.204Z,28.13
2022-11-12T01:06:56.372Z,28.05
2022-11-12T01:09:42.684Z,28.55
2022-11-12T01:12:28.737Z,29.15
2022-11-12T01:15:14.696Z,28.42
2022-11-12T01:18:00.655Z,29.10
2022-11-12T01:20:46.488Z,29.95
2022-11-12T01:23:36.783Z,29.08
2022-11-12T01:26:23.498Z,27.25
2022-11-12T01:29:09.147Z,28.00
2022-11-12T01:31:55.097Z,26.92
2022-11-12T01:34:41.214Z,27.58
2022-11-12T01:37:27.054Z,27.13
2022-11-12T01:40:13.340Z,28.60
2022-11-12T01:42:59.525Z,28.00
2022-11-12T01:45:47.508Z,28.17
2022-11-12T01:48:35.620Z,28.50
2022-11-12T01:51:23.501Z,28.73
2022-11-12T01:54:11.840Z,28.83
2022-11-12T01:56:57.966Z,28.52
2022-11-12T01:59:45.964Z,30.02
2022-11-12T02:02:32.336Z,29.50
2022-11-12T02:05:18.498Z,30.20
2022-11-12T02:08:05.770Z,27.67
2022-11-12T02:10:51.745Z,28.33
2022-11-12T02:13:56.452Z,28.58
2022-11-12T02:16:44.437Z,29.67
2022-11-12T02:19:30.478Z,28.15
2022-11-12T02:22:16.399Z,29.75
2022-11-12T02:25:02.336Z,30.20
2022-11-12T02:27:51.759Z,29.33
2022-11-12T02:30:39.366Z,29.80
2022-11-12T02:33:25.238Z,29.45
2022-11-12T02:36:11.440Z,28.80
2022-11-12T02:38:57.604Z,29.30
2022-11-12T02:41:43.824Z,29.80
2022-11-12T02:44:30.256Z,29.23
2022-11-12T02:47:16.191Z,30.15
2022-11-12T02:50:02.091Z,29.65
2022-11-12T02:52:48.136Z,29.55
2022-11-12T02:55:34.171Z,29.27
2022-11-12T02:58:22.707Z,30.15
2022-11-12T03:01:09.060Z,28.50
2022-11-12T03:03:54.782Z,29.88
2022-11-12T03:06:40.793Z,30.02
2022-11-12T03:09:26.781Z,30.50
2022-11-12T03:12:12.734Z,29.80
2022-11-12T03:14:58.685Z,29.15
2022-11-12T03:17:44.663Z,29.60
2022-11-12T03:20:30.529Z,29.92
2022-11-12T03:23:16.606Z,29.85
2022-11-12T03:26:03.282Z,30.30
2022-11-12T03:28:49.378Z,29.55
2022-11-12T03:31:35.797Z,31.38
2022-11-12T03:34:21.523Z,31.45
2022-11-12T03:37:09.606Z,30.98
2022-11-12T03:39:55.543Z,31.60
2022-11-12T03:42:48.130Z,31.60
2022-11-12T03:45:33.938Z,31.20
2022-11-12T03:48:19.902Z,31.05
2022-11-12T03:51:05.932Z,31.55
2022-11-12T03:53:51.798Z,31.02
2022-11-12T03:56:37.782Z,30.70
2022-11-12T03:59:23.705Z,31.35
2022-11-12T04:02:14.453Z,31.83
2022-11-12T04:05:19.521Z,33.42
2022-11-12T04:08:26.741Z,31.33
2022-11-12T04:11:17.064Z,32.20
2022-11-12T04:14:02.867Z,31.48
2022-11-12T04:17:07.381Z,32.33
2022-11-12T04:20:11.955Z,33.05
2022-11-12T04:22:58.291Z,33.30
2022-11-12T04:26:03.394Z,34.72
2022-11-12T04:29:07.944Z,33.58
2022-11-12T04:31:53.752Z,34.35
2022-11-12T04:34:39.894Z,34.15
2022-11-12T04:37:26.977Z,32.42
2022-11-12T04:40:38.875Z,31.83
2022-11-12T04:43:43.311Z,32.03
2022-11-12T04:46:29.184Z,31.48
2022-11-12T04:49:15.266Z,31.98
2022-11-12T04:52:07.003Z,33.00
2022-11-12T04:54:53.097Z,30.73
2022-11-12T04:57:39.390Z,30.45
2022-11-12T05:00:25.594Z,30.92
2022-11-12T05:03:12.021Z,30.23
2022-11-12T05:06:04.300Z,28.70
2022-11-12T05:08:50.544Z,28.17
2022-11-12T05:11:36.721Z,28.40
2022-11-12T05:14:23.016Z,27.83
2022-11-12T05:17:08.957Z,27.42
2022-11-12T05:19:55.100Z,29.17
2022-11-12T05:22:47.794Z,29.20
2022-11-12T05:25:36.564Z,30.27
2022-11-12T05:28:22.642Z,29.00
2022-11-12T05:31:08.822Z,30.38
2022-11-12T05:33:54.739Z,30.27
2022-11-12T05:36:40.721Z,29.85
2022-11-12T05:39:26.622Z,30.65
2022-11-12T05:42:14.381Z,33.28
2022-11-12T05:45:00.428Z,29.80
2022-11-12T05:47:46.485Z,30.85
2022-11-12T05:50:39.916Z,30.42
2022-11-12T05:53:37.488Z,31.83
2022-11-12T05:56:23.600Z,30.23
2022-11-12T05:59:10.662Z,30.65
2022-11-12T06:01:56.636Z,30.48
2022-11-12T06:04:42.763Z,28.42
2022-11-12T06:07:28.673Z,27.83
2022-11-12T06:10:19.245Z,25.65
2022-11-12T06:13:06.705Z,26.88
2022-11-12T06:15:53.294Z,25.35
2022-11-12T06:18:38.978Z,25.08
2022-11-12T06:21:27.930Z,23.52
2022-11-12T06:24:14.802Z,24.08
2022-11-12T06:27:00.861Z,23.80
2022-11-12T06:29:47.004Z,24.10
2022-11-12T06:32:33.175Z,23.90
2022-11-12T06:35:19.691Z,23.88
2022-11-12T06:38:05.676Z,23.70
2022-11-12T06:40:51.474Z,24.05
2022-11-12T06:43:37.737Z,20.50
2022-11-12T06:46:23.707Z,20.90
2022-11-12T06:49:09.570Z,20.02
2022-11-12T06:51:55.479Z,20.52
2022-11-12T06:54:41.431Z,19.25
2022-11-12T06:57:27.333Z,19.40
2022-11-12T07:00:13.564Z,19.13
2022-11-12T07:02:59.152Z,18.35
2022-11-12T07:05:45.217Z,19.38
2022-11-12T07:08:32.105Z,19.58
2022-11-12T07:11:18.734Z,18.95
2022-11-12T07:14:08.037Z,20.27
2022-11-12T07:16:53.789Z,18.75
2022-11-12T07:19:39.682Z,19.80
2022-11-12T07:22:25.477Z,20.15
2022-11-12T07:25:11.504Z,20.27
2022-11-12T07:27:57.579Z,18.85
2022-11-12T07:30:43.565Z,18.40
2022-11-12T07:33:30.197Z,19.70
2022-11-12T07:36:17.418Z,18.00
2022-11-12T07:39:03.261Z,16.92
2022-11-12T07:41:49.387Z,17.17
2022-11-12T07:44:35.500Z,15.73
2022-11-12T07:47:21.570Z,17.48
2022-11-12T07:50:07.753Z,16.20
2022-11-12T07:52:53.319Z,16.52
2022-11-12T07:55:39.283Z,16.33
2022-11-12T07:58:26.019Z,15.35
2022-11-12T08:01:25.018Z,15.45
2022-11-12T08:04:12.144Z,16.70
2022-11-12T08:06:58.246Z,17.25
2022-11-12T08:09:43.987Z,17.25
2022-11-12T08:12:29.967Z,17.75
2022-11-12T08:15:16.712Z,17.25
2022-11-12T08:18:02.703Z,16.55
2022-11-12T08:20:48.683Z,16.75
2022-11-12T08:23:35.323Z,15.82
2022-11-12T08:26:21.494Z,16.67
2022-11-12T08:29:08.933Z,17.63
2022-11-12T08:31:54.950Z,16.92
2022-11-12T08:34:41.507Z,17.88
2022-11-12T08:37:27.725Z,17.50
2022-11-12T08:40:13.841Z,17.38
2022-11-12T08:43:04.328Z,17.05
2022-11-12T08:45:50.256Z,19.58
2022-11-12T08:48:36.768Z,20.23
2022-11-12T08:51:22.958Z,17.73
2022-11-12T08:54:08.895Z,16.88
2022-11-12T08:56:54.946Z,17.25
2022-11-12T08:59:40.907Z,18.75
2022-11-12T09:02:26.893Z,18.70
2022-11-12T09:05:12.811Z,19.05
2022-11-12T09:08:03.054Z,18.35
2022-11-12T09:10:49.487Z,18.23
2022-11-12T09:13:35.890Z,19.15
2022-11-12T09:16:22.185Z,17.95
2022-11-12T09:19:07.763Z,18.98
2022-11-12T09:21:53.705Z,18.80
2022-11-12T09:24:39.614Z,18.20
2022-11-12T09:27:27.507Z,17.65
2022-11-12T09:30:13.448Z,16.67
2022-11-12T09:32:59.600Z,16.95
2022-11-12T09:35:46.188Z,17.55
2022-11-12T09:38:32.378Z,15.93
2022-11-12T09:41:24.910Z,17.30
2022-11-12T09:44:16.444Z,16.13
2022-11-12T09:47:23.828Z,16.77
2022-11-12T09:50:09.965Z,17.65
2022-11-12T09:53:00.390Z,17.08
2022-11-12T09:55:49.130Z,16.02
2022-11-12T09:58:34.875Z,15.95
2022-11-12T10:01:24.200Z,16.58
2022-11-12T10:04:28.622Z,15.65
2022-11-12T10:07:33.474Z,16.30
2022-11-12T10:10:25.079Z,15.90
2022-11-12T10:13:17.520Z,15.43
2022-11-12T10:16:21.933Z,15.90
2022-11-12T10:19:23.240Z,16.15
2022-11-12T10:22:28.012Z,15.70
2022-11-12T10:25:15.884Z,15.75
2022-11-12T10:28:07.137Z,15.63
2022-11-12T10:30:55.453Z,15.93
2022-11-12T10:33:41.347Z,15.50
2022-11-12T10:36:30.376Z,15.80
2022-11-12T10:39:36.913Z,13.93
2022-11-12T10:42:23.957Z,14.00
2022-11-12T10:45:19.805Z,11.88
2022-11-12T10:48:05.800Z,11.30
2022-11-12T10:50:52.154Z,11.70
2022-11-12T10:53:39.433Z,11.82
2022-11-12T10:56:26.691Z,12.30
2022-11-12T10:59:17.102Z,12.23
2022-11-12T11:02:03.586Z,12.85
2022-11-12T11:04:49.399Z,13.55
2022-11-12T11:07:35.522Z,12.65
2022-11-12T11:10:24.539Z,13.18
2022-11-12T11:13:30.654Z,12.85
2022-11-12T11:16:26.633Z,13.57
2022-11-12T11:19:12.661Z,13.35
2022-11-12T11:22:02.406Z,13.90
2022-11-12T11:24:48.072Z,14.73
2022-11-12T11:27:33.902Z,13.80
2022-11-12T11:30:21.439Z,15.40
2022-11-12T11:33:19.591Z,15.18
2022-11-12T11:36:25.278Z,17.35
2022-11-12T11:39:17.147Z,13.98
2022-11-12T11:42:09.698Z,13.95
2022-11-12T11:45:08.031Z,13.77
2022-11-12T11:48:08.616Z,13.88
2022-11-12T11:51:00.525Z,14.45
2022-11-12T11:53:52.320Z,14.20
2022-11-12T11:56:41.038Z,14.20
2022-11-12T11:59:26.994Z,15.98
2022-11-12T12:02:28.227Z,14.15
2022-11-12T12:05:46.589Z,14.75
2022-11-12T12:08:50.735Z,17.63
2022-11-12T12:11:43.825Z,13.23
2022-11-12T12:14:33.870Z,19.52
2022-11-12T12:17:38.913Z,14.38
2022-11-12T12:20:33.719Z,19.02
2022-11-12T12:23:26.201Z,17.97
2022-11-12T12:26:17.246Z,10.73
2022-11-12T12:29:07.444Z,10.10
2022-11-12T12:31:56.350Z,10.55
2022-11-12T12:34:47.821Z,11.45
2022-11-12T12:37:43.273Z,11.00
2022-11-12T12:40:37.055Z,10.98
2022-11-12T12:43:22.926Z,12.20
2022-11-12T12:46:11.426Z,12.02
2022-11-12T12:48:57.648Z,12.90
2022-11-12T12:51:43.813Z,12.25
2022-11-12T12:54:35.818Z,14.02
2022-11-12T12:57:27.701Z,11.45
2022-11-12T13:00:29.015Z,13.85
2022-11-12T13:03:34.890Z,13.80
2022-11-12T13:06:24.122Z,12.98
2022-11-12T13:09:13.171Z,15.05
2022-11-12T13:12:04.835Z,13.25
2022-11-12T13:15:08.596Z,13.70
2022-11-12T13:17:54.501Z,13.95
2022-11-12T13:20:42.210Z,13.95
2022-11-12T13:24:04.724Z,14.68
2022-11-12T13:26:50.556Z,12.93
2022-11-12T13:29:36.358Z,14.80
2022-11-12T13:32:37.569Z,17.00
2022-11-12T13:35:34.992Z,13.38
2022-11-12T13:38:21.366Z,11.70
2022-11-12T13:41:07.177Z,13.90
2022-11-12T13:43:53.276Z,16.02
2022-11-12T13:46:39.346Z,15.38
2022-11-12T13:49:25.463Z,12.82
2022-11-12T13:52:13.938Z,14.50
2022-11-12T13:55:04.568Z,12.70
2022-11-12T13:57:54.666Z,14.80
2022-11-12T14:00:40.707Z,15.13
2022-11-12T14:03:27.812Z,15.60
2022-11-12T14:06:26.047Z,21.17
2022-11-12T14:09:24.329Z,17.48
2022-11-12T14:12:16.424Z,15.27
2022-11-12T14:15:14.789Z,15.02
2022-11-12T14:18:36.278Z,16.52
2022-11-12T14:21:22.436Z,15.35
2022-11-12T14:24:11.458Z,15.95
2022-11-12T14:26:57.202Z,16.58
2022-11-12T14:29:43.899Z,16.73
2022-11-12T14:32:35.891Z,17.10
2022-11-12T14:35:22.066Z,34.22
2022-11-12T14:38:13.408Z,18.27
2022-11-12T14:41:02.006Z,31.45
2022-11-12T14:43:54.966Z,29.35
2022-11-12T14:46:50.349Z,38.03
2022-11-12T14:49:43.849Z,30.52
2022-11-12T14:52:33.771Z,24.83
2022-11-12T14:55:21.650Z,29.92
2022-11-12T14:58:07.728Z,27.73
2022-11-12T15:00:54.531Z,30.60
2022-11-12T15:03:40.701Z,35.70
2022-11-12T15:06:34.058Z,50.20
2022-11-12T15:09:21.993Z,57.42
2022-11-12T15:12:14.299Z,49.30
2022-11-12T15:15:30.176Z,34.90
2022-11-12T15:18:16.155Z,28.88
2022-11-12T15:21:05.586Z,27.50
2022-11-12T15:23:53.756Z,28.20
2022-11-12T15:26:39.810Z,40.70
2022-11-12T15:29:36.100Z,37.88
2022-11-12T15:32:22.400Z,33.85
2022-11-12T15:35:20.742Z,32.10
2022-11-12T15:38:14.005Z,31.60
2022-11-12T15:41:00.293Z,38.17
2022-11-12T15:43:46.542Z,36.50
2022-11-12T15:46:32.442Z,29.90
2022-11-12T15:49:18.167Z,33.10
2022-11-12T15:52:04.146Z,35.05
2022-11-12T15:54:50.144Z,31.17
2022-11-12T15:57:40.015Z,28.33
2022-11-12T16:00:27.670Z,31.70
2022-11-12T16:03:17.675Z,28.60
2022-11-12T16:06:08.649Z,28.38
2022-11-12T16:08:54.953Z,30.10
2022-11-12T16:11:41.098Z,32.28
2022-11-12T16:14:27.709Z,36.65
2022-11-12T16:17:15.539Z,39.08
2022-11-12T16:20:01.606Z,36.70
2022-11-12T16:22:48.037Z,39.03
2022-11-12T16:25:35.713Z,42.67
2022-11-12T16:28:21.871Z,41.28
2022-11-12T16:33:53.045Z,44.30
2022-11-12T16:36:39.941Z,40.95
2022-11-12T16:39:26.302Z,32.70
2022-11-12T16:42:12.299Z,34.33
2022-11-12T16:44:58.406Z,34.85
2022-11-12T16:47:48.570Z,34.95
2022-11-12T16:50:34.567Z,34.15
2022-11-12T16:53:20.593Z,33.58
2022-11-12T16:56:11.297Z,36.15
2022-11-12T16:58:57.002Z,34.13
2022-11-12T17:01:44.145Z,34.00
2022-11-12T17:04:29.975Z,35.58
2022-11-12T17:07:16.779Z,36.53
2022-11-12T17:10:03.005Z,37.53
2022-11-12T17:12:49.250Z,37.38
2022-11-12T17:15:35.033Z,37.78
2022-11-12T17:18:21.014Z,40.35
2022-11-12T17:21:17.131Z,38.95
2022-11-12T17:26:48.625Z,35.45
2022-11-12T17:29:35.050Z,37.97
2022-11-12T17:32:20.794Z,35.85
2022-11-12T17:35:07.143Z,35.33
2022-11-12T17:37:52.859Z,34.88
2022-11-12T17:40:38.679Z,39.95
2022-11-12T17:43:25.110Z,60.38
2022-11-12T17:46:11.409Z,49.67
2022-11-12T17:48:57.674Z,47.50
2022-11-12T17:51:43.723Z,47.60
2022-11-12T17:54:29.577Z,49.35
2022-11-12T17:57:15.817Z,53.97
2022-11-12T18:00:01.533Z,56.97
2022-11-12T18:02:47.459Z,57.47
2022-11-12T18:05:33.578Z,61.92
2022-11-12T18:08:19.519Z,75.45
2022-11-12T18:11:05.498Z,93.32
2022-11-12T18:13:51.563Z,80.15
2022-11-12T18:16:37.495Z,88.63
2022-11-12T18:19:23.409Z,100.25
2022-11-12T18:22:11.963Z,105.40
2022-11-12T18:24:57.885Z,113.43
2022-11-12T18:27:44.631Z,109.55
2022-11-12T18:30:30.393Z,106.53
2022-11-12T18:33:16.433Z,102.13
2022-11-12T18:36:08.937Z,100.00
2022-11-12T18:38:55.596Z,99.45
2022-11-12T18:41:41.489Z,103.35
2022-11-12T18:44:27.467Z,104.20
2022-11-12T18:47:13.542Z,97.63
2022-11-12T18:50:02.906Z,95.68
2022-11-12T18:52:51.664Z,95.85
2022-11-12T18:55:37.701Z,90.15
2022-11-12T18:58:23.690Z,92.93
2022-11-12T19:01:11.632Z,90.50
2022-11-12T19:03:58.123Z,90.53
2022-11-12T19:06:44.692Z,94.50
2022-11-12T19:09:30.867Z,91.40
2022-11-12T19:12:16.904Z,88.18
2022-11-12T19:15:02.924Z,83.90
2022-11-12T19:17:48.795Z,77.22
2022-11-12T19:20:34.722Z,78.72
2022-11-12T19:23:20.806Z,79.13
2022-11-12T19:26:07.430Z,76.22
2022-11-12T19:28:53.417Z,67.05
2022-11-12T19:31:39.326Z,64.43
2022-11-12T19:34:25.334Z,59.53
2022-11-12T19:37:32.261Z,64.65
2022-11-12T19:40:17.848Z,65.32
2022-11-12T19:43:03.619Z,70.25
2022-11-12T19:45:49.695Z,69.30
2022-11-12T19:48:35.757Z,69.93
2022-11-12T19:51:21.737Z,76.68
2022-11-12T19:54:07.842Z,72.65
2022-11-12T19:56:53.600Z,72.00
2022-11-12T19:59:40.239Z,71.05
2022-11-12T20:02:26.365Z,67.82
2022-11-12T20:05:12.265Z,51.45
2022-11-12T20:07:58.390Z,51.20
2022-11-12T20:10:44.495Z,53.30
2022-11-12T20:13:30.551Z,52.53
2022-11-12T20:16:20.969Z,52.05
2022-11-12T20:19:10.742Z,53.83
2022-11-12T20:21:56.749Z,58.25
2022-11-12T20:24:42.612Z,60.65
2022-11-12T20:27:28.595Z,56.92
2022-11-12T20:30:14.783Z,60.30
2022-11-12T20:33:01.042Z,60.22
2022-11-12T20:35:46.795Z,63.25
2022-11-12T20:38:32.858Z,59.97
2022-11-12T20:41:20.590Z,57.63
2022-11-12T20:44:06.849Z,54.63
2022-11-12T20:46:52.711Z,52.42
2022-11-12T20:49:38.708Z,54.97
2022-11-12T20:52:24.901Z,56.90
2022-11-12T20:55:10.751Z,59.35
2022-11-12T20:57:56.796Z,53.60
2022-11-12T21:00:42.766Z,50.65
2022-11-12T21:03:28.710Z,52.78
2022-11-12T21:06:15.889Z,55.30
2022-11-12T21:09:01.643Z,62.00
2022-11-12T21:11:47.657Z,56.15
2022-11-12T21:14:33.671Z,58.83
2022-11-12T21:17:19.829Z,58.47
2022-11-12T21:20:05.794Z,59.90
2022-11-12T21:22:51.923Z,65.03
2022-11-12T21:25:38.480Z,70.97
2022-11-12T21:28:24.755Z,68.18
2022-11-12T21:31:15.790Z,73.57
2022-11-12T21:34:04.395Z,78.75
2022-11-12T21:36:50.361Z,74.20
2022-11-12T21:39:36.355Z,73.43
2022-11-12T21:42:22.382Z,75.15
2022-11-12T21:45:08.564Z,80.55
2022-11-12T21:47:54.443Z,75.55
2022-11-12T21:50:40.496Z,101.90
2022-11-12T21:53:26.778Z,95.13
2022-11-12T21:56:16.043Z,87.53
2022-11-12T21:59:04.107Z,75.05
2022-11-12T22:01:50.231Z,72.32
2022-11-12T22:04:36.187Z,69.03
2022-11-12T22:07:22.264Z,54.55
2022-11-12T22:10:08.332Z,52.47
2022-11-12T22:13:24.950Z,46.67
2022-11-12T22:16:04.981Z,45.60
2022-11-12T22:18:52.049Z,45.35
2022-11-12T22:21:40.108Z,48.35
2022-11-12T22:24:26.226Z,47.17
2022-11-12T22:27:12.214Z,45.22
2022-11-12T22:29:58.404Z,47.30
2022-11-12T22:32:44.369Z,49.95
2022-11-12T22:35:30.290Z,49.25
2022-11-12T22:38:16.165Z,49.45
2022-11-12T22:41:03.002Z,50.03
2022-11-12T22:43:49.623Z,49.15
2022-11-12T22:46:36.090Z,51.88
2022-11-12T22:49:21.874Z,50.17
2022-11-12T22:52:07.787Z,47.30
2022-11-12T22:54:53.865Z,46.65
2022-11-12T22:57:39.938Z,46.80
2022-11-12T23:00:30.435Z,47.72
2022-11-12T23:03:16.318Z,49.10
2022-11-12T23:06:03.694Z,49.30
2022-11-12T23:08:49.438Z,45.13
2022-11-12T23:11:37.637Z,43.00
2022-11-12T23:14:23.794Z,46.13
2022-11-12T23:17:09.657Z,50.70
2022-11-12T23:19:55.729Z,49.10
2022-11-12T23:22:41.712Z,48.78
2022-11-12T23:25:27.587Z,46.08
2022-11-12T23:28:13.582Z,45.30
2022-11-12T23:30:59.827Z,42.05
2022-11-12T23:33:52.867Z,43.35
2022-11-12T23:36:38.834Z,42.33
2022-11-12T23:39:24.742Z,39.42
2022-11-12T23:42:10.792Z,38.60
2022-11-12T23:44:56.674Z,37.75
2022-11-12T23:47:42.614Z,37.13
2022-11-12T23:50:28.663Z,37.60
2022-11-12T23:53:14.776Z,37.80
2022-11-12T23:56:01.321Z,36.78
2022-11-12T23:58:47.258Z,36.70
